createdAt,value
2023-02-25T00:00:49.787Z,9.50
2023-02-25T00:03:36.444Z,8.80
2023-02-25T00:06:22.785Z,8.73
2023-02-25T00:09:11.208Z,8.00
2023-02-25T00:11:56.715Z,7.57
2023-02-25T00:14:46.392Z,8.80
2023-02-25T00:17:36.243Z,8.20
2023-02-25T00:20:22.492Z,7.95
2023-02-25T00:23:08.222Z,8.70
2023-02-25T00:26:05.538Z,7.95
2023-02-25T00:28:51.414Z,8.40
2023-02-25T00:31:37.088Z,8.65
2023-02-25T00:34:22.267Z,10.20
2023-02-25T00:37:10.840Z,11.82
2023-02-25T00:39:56.737Z,10.50
2023-02-25T00:42:42.716Z,10.55
2023-02-25T00:45:28.366Z,8.40
2023-02-25T00:48:15.372Z,8.77
2023-02-25T00:51:09.036Z,7.30
2023-02-25T00:53:58.560Z,8.05
2023-02-25T00:56:44.690Z,8.30
2023-02-25T00:59:30.255Z,9.45
2023-02-25T01:02:15.949Z,9.38
2023-02-25T01:05:01.311Z,9.00
2023-02-25T01:07:48.385Z,8.77
2023-02-25T01:10:33.883Z,8.82
2023-02-25T01:13:19.334Z,8.18
2023-02-25T01:16:14.899Z,8.80
2023-02-25T01:19:02.764Z,9.25
2023-02-25T01:21:51.813Z,10.43
2023-02-25T01:24:40.218Z,10.35
2023-02-25T01:27:25.903Z,9.82
2023-02-25T01:30:12.191Z,10.27
2023-02-25T01:32:57.846Z,9.25
2023-02-25T01:35:43.508Z,8.65
2023-02-25T01:38:30.189Z,9.60
2023-02-25T01:41:15.638Z,8.57
2023-02-25T01:44:02.696Z,8.43
2023-02-25T01:46:53.802Z,9.07
2023-02-25T01:49:46.309Z,8.75
2023-02-25T01:52:32.031Z,9.35
2023-02-25T01:55:18.187Z,9.85
2023-02-25T01:58:04.184Z,8.50
2023-02-25T02:00:55.640Z,9.18
2023-02-25T02:03:44.332Z,8.98
2023-02-25T02:06:36.771Z,9.20
2023-02-25T02:09:26.391Z,9.65
2023-02-25T02:12:12.430Z,8.45
2023-02-25T02:14:59.795Z,8.93
2023-02-25T02:17:56.830Z,9.20
2023-02-25T02:21:11.948Z,9.32
2023-02-25T02:24:32.844Z,8.13
2023-02-25T02:27:52.535Z,8.23
2023-02-25T02:30:43.767Z,7.57
2023-02-25T02:33:57.010Z,7.20
2023-02-25T02:37:00.940Z,8.07
2023-02-25T02:40:05.923Z,7.15
2023-02-25T02:42:55.912Z,9.10
2023-02-25T02:45:54.880Z,7.05
2023-02-25T02:48:52.669Z,6.45
2023-02-25T02:51:45.223Z,7.10
2023-02-25T02:54:37.626Z,6.65
2023-02-25T02:57:27.976Z,7.38
2023-02-25T03:00:17.807Z,6.90
2023-02-25T03:03:36.457Z,6.57
2023-02-25T03:06:26.429Z,6.95
2023-02-25T03:09:25.410Z,7.47
2023-02-25T03:12:11.114Z,7.78
2023-02-25T03:14:57.206Z,7.70
2023-02-25T03:17:50.495Z,7.55
2023-02-25T03:20:42.263Z,7.03
2023-02-25T03:23:32.959Z,7.35
2023-02-25T03:26:30.220Z,7.68
2023-02-25T03:29:24.206Z,8.13
2023-02-25T03:32:12.769Z,6.85
2023-02-25T03:35:01.616Z,6.38
2023-02-25T03:37:52.276Z,6.85
2023-02-25T03:40:42.576Z,6.57
2023-02-25T03:43:34.718Z,7.82
2023-02-25T03:46:23.011Z,7.63
2023-02-25T03:49:15.563Z,8.60
2023-02-25T03:52:06.025Z,8.20
2023-02-25T03:54:54.208Z,8.27
2023-02-25T03:57:43.287Z,9.23
2023-02-25T04:00:35.323Z,10.15
2023-02-25T04:03:20.702Z,9.77
2023-02-25T04:06:06.388Z,7.95
2023-02-25T04:08:52.377Z,8.23
2023-02-25T04:11:38.251Z,10.90
2023-02-25T04:14:24.770Z,9.50
2023-02-25T04:17:16.136Z,9.45
2023-02-25T04:20:01.978Z,9.50
2023-02-25T04:22:47.260Z,7.28
2023-02-25T04:25:33.298Z,8.70
2023-02-25T04:28:18.731Z,8.27
2023-02-25T04:31:04.384Z,8.75
2023-02-25T04:33:50.227Z,6.95
2023-02-25T04:36:36.159Z,6.50
2023-02-25T04:39:21.638Z,7.53
2023-02-25T04:42:07.627Z,6.20
2023-02-25T04:44:53.197Z,6.18
2023-02-25T04:47:39.247Z,6.68
2023-02-25T04:50:26.016Z,6.70
2023-02-25T04:53:11.497Z,6.68
2023-02-25T04:55:57.620Z,7.18
2023-02-25T04:58:44.847Z,6.13
2023-02-25T05:01:32.416Z,7.05
2023-02-25T05:04:18.502Z,6.47
2023-02-25T05:07:05.597Z,6.47
2023-02-25T05:09:51.944Z,6.82
2023-02-25T05:12:37.818Z,7.03
2023-02-25T05:15:23.096Z,8.05
2023-02-25T05:18:08.844Z,6.50
2023-02-25T05:20:54.620Z,8.23
2023-02-25T05:23:43.106Z,8.02
2023-02-25T05:26:28.580Z,8.20
2023-02-25T05:29:14.055Z,7.78
2023-02-25T05:32:00.409Z,8.18
2023-02-25T05:34:45.958Z,8.88
2023-02-25T05:37:32.789Z,9.70
2023-02-25T05:40:18.023Z,9.40
2023-02-25T05:43:04.124Z,10.20
2023-02-25T05:45:56.555Z,10.75
2023-02-25T05:48:46.773Z,10.75
2023-02-25T05:51:32.479Z,9.93
2023-02-25T05:54:17.974Z,9.27
2023-02-25T05:57:03.668Z,9.85
2023-02-25T05:59:49.077Z,9.52
2023-02-25T06:02:34.734Z,9.77
2023-02-25T06:05:20.201Z,9.32
2023-02-25T06:08:05.767Z,9.15
2023-02-25T06:10:54.505Z,9.07
2023-02-25T06:13:40.471Z,8.57
2023-02-25T06:16:31.968Z,9.95
2023-02-25T06:19:17.599Z,9.77
2023-02-25T06:22:03.020Z,11.40
2023-02-25T06:24:49.168Z,11.75
2023-02-25T06:27:34.580Z,9.82
2023-02-25T06:30:20.075Z,9.27
2023-02-25T06:33:05.630Z,8.70
2023-02-25T06:35:55.491Z,8.20
2023-02-25T06:38:41.320Z,9.52
2023-02-25T06:41:29.532Z,8.60
2023-02-25T06:44:15.905Z,8.80
2023-02-25T06:47:01.599Z,8.35
2023-02-25T06:49:47.043Z,9.27
2023-02-25T06:52:32.606Z,8.57
2023-02-25T06:55:18.085Z,7.40
2023-02-25T06:58:03.535Z,8.52
2023-02-25T07:00:52.130Z,11.00
2023-02-25T07:03:37.780Z,11.20
2023-02-25T07:06:23.880Z,14.80
2023-02-25T07:09:09.892Z,13.45
2023-02-25T07:11:55.477Z,12.90
2023-02-25T07:14:41.412Z,13.00
2023-02-25T07:17:27.021Z,10.05
2023-02-25T07:20:12.754Z,9.50
2023-02-25T07:22:58.169Z,9.70
2023-02-25T07:25:43.480Z,7.68
2023-02-25T07:28:28.938Z,8.40
2023-02-25T07:31:17.925Z,8.43
2023-02-25T07:34:03.913Z,8.45
2023-02-25T07:36:49.876Z,6.50
2023-02-25T07:39:35.856Z,7.90
2023-02-25T07:42:23.192Z,7.25
2023-02-25T07:45:10.579Z,6.75
2023-02-25T07:47:55.889Z,6.13
2023-02-25T07:50:41.630Z,4.88
2023-02-25T07:53:26.705Z,2.63
2023-02-25T07:56:13.318Z,3.00
2023-02-25T07:58:59.510Z,3.58
2023-02-25T08:01:45.419Z,2.20
2023-02-25T08:04:30.735Z,1.45
2023-02-25T08:07:16.450Z,2.97
2023-02-25T08:10:01.782Z,1.50
2023-02-25T08:12:47.454Z,2.60
2023-02-25T08:15:33.042Z,2.83
2023-02-25T08:18:18.593Z,2.30
2023-02-25T08:21:05.082Z,2.53
2023-02-25T08:23:52.148Z,1.85
2023-02-25T08:26:37.686Z,1.77
2023-02-25T08:29:24.107Z,2.50
2023-02-25T08:32:09.682Z,2.03
2023-02-25T08:34:56.634Z,2.25
2023-02-25T08:37:45.343Z,3.22
2023-02-25T08:40:31.861Z,2.50
2023-02-25T08:43:17.077Z,3.20
2023-02-25T08:46:03.022Z,3.20
2023-02-25T08:48:50.650Z,4.30
2023-02-25T08:51:37.818Z,4.30
2023-02-25T08:54:25.230Z,4.10
2023-02-25T08:57:10.473Z,2.92
2023-02-25T08:59:56.744Z,4.72
2023-02-25T09:02:43.228Z,4.10
2023-02-25T09:05:28.937Z,2.90
2023-02-25T09:08:14.520Z,2.15
2023-02-25T09:10:59.924Z,7.72
2023-02-25T09:13:45.778Z,8.20
2023-02-25T09:16:31.751Z,6.93
2023-02-25T09:19:18.663Z,6.40
2023-02-25T09:22:06.269Z,8.63
2023-02-25T09:24:52.395Z,4.60
2023-02-25T09:27:37.895Z,5.95
2023-02-25T09:30:23.575Z,5.20
2023-02-25T09:33:09.940Z,5.70
2023-02-25T09:35:56.645Z,9.13
2023-02-25T09:38:46.102Z,9.38
2023-02-25T09:41:33.956Z,9.10
2023-02-25T09:44:24.985Z,10.13
2023-02-25T09:47:21.533Z,6.85
2023-02-25T09:50:21.543Z,2.10
2023-02-25T09:53:21.810Z,2.33
2023-02-25T09:56:08.750Z,0.95
2023-02-25T09:58:58.359Z,1.75
2023-02-25T10:01:59.199Z,1.50
2023-02-25T10:05:02.612Z,1.60
2023-02-25T10:08:07.493Z,3.30
2023-02-25T10:11:14.717Z,1.80
2023-02-25T10:14:12.399Z,2.20
2023-02-25T10:17:05.807Z,2.08
2023-02-25T10:20:23.757Z,1.88
2023-02-25T10:23:51.208Z,1.67
2023-02-25T10:26:42.706Z,1.58
2023-02-25T10:29:40.377Z,2.17
2023-02-25T10:32:28.935Z,2.80
2023-02-25T10:35:26.652Z,2.42
2023-02-25T10:38:12.797Z,3.13
2023-02-25T10:40:59.243Z,4.40
2023-02-25T10:43:46.269Z,2.55
2023-02-25T10:46:50.883Z,3.83
2023-02-25T10:49:38.534Z,2.80
2023-02-25T10:52:24.483Z,2.70
2023-02-25T10:55:26.395Z,2.97
2023-02-25T10:58:28.021Z,5.60
2023-02-25T11:01:17.156Z,5.28
2023-02-25T11:04:06.011Z,4.63
2023-02-25T11:06:52.517Z,3.60
2023-02-25T11:09:38.359Z,2.10
2023-02-25T11:12:24.961Z,4.35
2023-02-25T11:15:44.336Z,4.70
2023-02-25T11:18:33.129Z,2.88
2023-02-25T11:21:31.413Z,3.88
2023-02-25T11:24:34.544Z,1.20
2023-02-25T11:27:41.700Z,1.00
2023-02-25T11:30:40.507Z,1.10
2023-02-25T11:33:38.625Z,1.23
2023-02-25T11:36:43.646Z,4.53
2023-02-25T11:39:35.279Z,5.47
2023-02-25T11:42:31.318Z,4.00
2023-02-25T11:45:21.626Z,2.72
2023-02-25T11:48:31.752Z,3.63
2023-02-25T11:51:41.024Z,2.63
2023-02-25T11:54:53.725Z,2.60
2023-02-25T11:57:59.150Z,3.25
2023-02-25T12:00:57.365Z,3.45
2023-02-25T12:04:06.390Z,3.83
2023-02-25T12:06:54.972Z,2.55
2023-02-25T12:10:11.976Z,2.92
2023-02-25T12:13:06.055Z,4.15
2023-02-25T12:16:08.248Z,4.55
2023-02-25T12:19:31.510Z,5.20
2023-02-25T12:22:33.995Z,3.28
2023-02-25T12:25:43.688Z,4.63
2023-02-25T12:28:57.484Z,3.75
2023-02-25T12:31:53.831Z,4.38
2023-02-25T12:34:54.612Z,4.18
2023-02-25T12:38:04.456Z,4.70
2023-02-25T12:41:09.767Z,4.57
2023-02-25T12:44:28.744Z,3.80
2023-02-25T12:47:17.945Z,3.92
2023-02-25T12:50:22.229Z,3.17
2023-02-25T12:53:40.544Z,2.15
2023-02-25T12:57:15.503Z,2.53
2023-02-25T13:00:23.048Z,2.55
2023-02-25T13:03:24.175Z,3.22
2023-02-25T13:06:25.086Z,2.78
2023-02-25T13:09:39.331Z,2.22
2023-02-25T13:12:33.905Z,2.60
2023-02-25T13:15:30.651Z,2.97
2023-02-25T13:19:04.404Z,2.65
2023-02-25T13:22:20.134Z,3.97
2023-02-25T13:25:20.131Z,2.65
2023-02-25T13:28:08.854Z,2.20
2023-02-25T13:31:18.391Z,2.45
2023-02-25T13:34:13.512Z,3.05
2023-02-25T13:37:14.805Z,2.60
2023-02-25T13:40:17.996Z,3.10
2023-02-25T13:43:29.939Z,2.00
2023-02-25T13:46:21.397Z,2.47
2023-02-25T13:49:25.299Z,2.63
2023-02-25T13:52:37.071Z,2.25
2023-02-25T13:55:58.723Z,2.58
2023-02-25T13:59:33.508Z,2.80
2023-02-25T14:02:20.620Z,3.45
2023-02-25T14:05:08.589Z,3.63
2023-02-25T14:08:10.047Z,3.58
2023-02-25T14:11:17.073Z,2.38
2023-02-25T14:14:02.466Z,2.17
2023-02-25T14:17:17.764Z,2.58
2023-02-25T14:20:29.418Z,3.00
2023-02-25T14:23:37.194Z,2.85
2023-02-25T14:26:32.495Z,2.75
2023-02-25T14:29:25.324Z,3.20
2023-02-25T14:35:24.892Z,4.28
2023-02-25T14:38:13.609Z,3.20
2023-02-25T14:41:33.000Z,2.40
2023-02-25T14:44:29.334Z,3.35
2023-02-25T14:47:29.677Z,1.13
2023-02-25T14:50:38.009Z,1.33
2023-02-25T14:53:32.582Z,1.60
2023-02-25T14:56:48.980Z,1.67
2023-02-25T14:59:56.045Z,1.40
2023-02-25T15:03:09.217Z,2.28
2023-02-25T15:06:17.717Z,1.40
2023-02-25T15:09:23.831Z,1.05
2023-02-25T15:12:47.985Z,1.50
2023-02-25T15:16:13.963Z,0.43
2023-02-25T15:19:27.971Z,0.57
2023-02-25T15:22:14.235Z,0.80
2023-02-25T15:25:30.076Z,0.55
2023-02-25T15:28:30.699Z,0.47
2023-02-25T15:31:32.980Z,0.75
2023-02-25T15:34:22.041Z,1.08
2023-02-25T15:37:55.600Z,0.82
2023-02-25T15:40:45.365Z,1.25
2023-02-25T15:43:40.615Z,1.85
2023-02-25T15:46:35.499Z,2.17
2023-02-25T15:49:37.757Z,3.03
2023-02-25T15:53:02.853Z,2.50
2023-02-25T15:56:18.010Z,2.85
2023-02-25T15:59:05.011Z,4.00
2023-02-25T16:01:51.214Z,3.17
2023-02-25T16:04:46.909Z,4.40
2023-02-25T16:07:40.020Z,3.33
2023-02-25T16:10:32.472Z,2.97
2023-02-25T16:13:37.277Z,3.72
2023-02-25T16:16:23.507Z,3.30
2023-02-25T16:19:17.235Z,3.00
2023-02-25T16:22:19.719Z,2.22
2023-02-25T16:25:16.563Z,5.82
2023-02-25T16:28:18.882Z,3.40
2023-02-25T16:31:24.782Z,3.40
2023-02-25T16:34:23.599Z,3.30
2023-02-25T16:37:51.099Z,5.13
2023-02-25T16:40:40.025Z,6.35
2023-02-25T16:43:30.211Z,11.43
2023-02-25T16:46:20.244Z,6.97
2023-02-25T16:49:17.600Z,4.93
2023-02-25T16:52:04.352Z,3.33
2023-02-25T16:54:56.627Z,2.15
2023-02-25T16:57:47.607Z,2.55
2023-02-25T17:00:34.486Z,2.88
2023-02-25T17:03:21.971Z,3.15
2023-02-25T17:06:16.080Z,2.70
2023-02-25T17:09:01.743Z,2.83
2023-02-25T17:11:54.862Z,2.67
2023-02-25T17:14:44.518Z,3.20
2023-02-25T17:17:35.706Z,4.35
2023-02-25T17:20:24.924Z,4.10
2023-02-25T17:23:16.637Z,4.32
2023-02-25T17:26:02.650Z,2.40
2023-02-25T17:28:51.544Z,2.40
2023-02-25T17:31:47.685Z,3.78
2023-02-25T17:34:36.102Z,4.90
2023-02-25T17:37:23.162Z,8.00
2023-02-25T17:40:16.248Z,4.13
2023-02-25T17:43:40.425Z,3.67
2023-02-25T17:46:37.830Z,9.60
2023-02-25T17:49:32.722Z,3.80
2023-02-25T17:52:23.167Z,2.20
2023-02-25T17:55:38.777Z,1.30
2023-02-25T17:58:24.886Z,1.48
2023-02-25T18:01:22.935Z,1.48
2023-02-25T18:04:08.777Z,1.50
2023-02-25T18:06:55.885Z,1.42
2023-02-25T18:09:41.652Z,2.03
2023-02-25T18:12:34.643Z,3.05
2023-02-25T18:15:27.094Z,4.47
2023-02-25T18:18:21.607Z,4.28
2023-02-25T18:21:10.087Z,4.53
2023-02-25T18:23:56.903Z,5.43
2023-02-25T18:27:04.719Z,3.80
2023-02-25T18:29:50.882Z,4.32
2023-02-25T18:32:36.459Z,5.30
2023-02-25T18:35:22.349Z,7.55
2023-02-25T18:38:15.753Z,10.35
2023-02-25T18:41:02.965Z,10.23
2023-02-25T18:43:49.561Z,14.55
2023-02-25T18:46:35.225Z,13.35
2023-02-25T18:49:21.165Z,15.50
2023-02-25T18:52:17.164Z,11.00
2023-02-25T18:55:02.883Z,7.80
2023-02-25T18:57:49.318Z,9.73
2023-02-25T19:00:35.994Z,9.40
2023-02-25T19:03:36.293Z,9.02
2023-02-25T19:06:24.533Z,8.18
2023-02-25T19:09:11.519Z,7.95
2023-02-25T19:11:56.709Z,9.35
2023-02-25T19:14:43.790Z,6.15
2023-02-25T19:17:30.150Z,5.18
2023-02-25T19:20:21.216Z,4.65
2023-02-25T19:23:06.869Z,4.15
2023-02-25T19:25:58.850Z,8.98
2023-02-25T19:31:30.782Z,6.25
2023-02-25T19:34:16.660Z,3.75
2023-02-25T19:37:01.908Z,4.30
2023-02-25T19:39:47.807Z,4.40
2023-02-25T19:42:33.319Z,6.15
2023-02-25T19:45:22.616Z,7.80
2023-02-25T19:48:09.410Z,6.25
2023-02-25T19:50:55.062Z,6.90
2023-02-25T19:53:42.359Z,6.60
2023-02-25T19:56:28.160Z,9.80
2023-02-25T19:59:14.360Z,7.75
2023-02-25T20:02:00.694Z,6.43
2023-02-25T20:04:48.766Z,6.97
2023-02-25T20:07:34.976Z,6.03
2023-02-25T20:10:22.813Z,6.70
2023-02-25T20:13:08.952Z,8.88
2023-02-25T20:16:02.265Z,7.63
2023-02-25T20:18:52.059Z,9.70
2023-02-25T20:21:38.478Z,9.95
2023-02-25T20:24:23.986Z,12.43
2023-02-25T20:27:10.196Z,10.77
2023-02-25T20:29:56.245Z,9.32
2023-02-25T20:32:44.039Z,8.13
2023-02-25T20:35:30.868Z,8.95
2023-02-25T20:38:40.490Z,11.38
2023-02-25T20:41:27.012Z,11.40
2023-02-25T20:44:17.103Z,11.77
2023-02-25T20:47:05.246Z,11.52
2023-02-25T20:49:51.764Z,6.05
2023-02-25T20:52:38.286Z,4.20
2023-02-25T20:55:26.136Z,2.78
2023-02-25T20:58:11.980Z,2.58
2023-02-25T21:00:57.650Z,1.95
2023-02-25T21:03:47.804Z,2.00
2023-02-25T21:06:33.865Z,1.80
2023-02-25T21:09:23.531Z,2.78
2023-02-25T21:12:10.381Z,2.10
2023-02-25T21:14:57.125Z,1.98
2023-02-25T21:17:43.166Z,2.10
2023-02-25T21:20:28.698Z,2.50
2023-02-25T21:23:14.119Z,2.00
2023-02-25T21:26:01.015Z,2.22
2023-02-25T21:28:46.805Z,2.53
2023-02-25T21:31:36.294Z,2.85
2023-02-25T21:34:22.066Z,2.78
2023-02-25T21:37:07.991Z,2.60
2023-02-25T21:39:53.172Z,1.95
2023-02-25T21:42:38.992Z,1.75
2023-02-25T21:45:24.521Z,1.75
2023-02-25T21:48:11.830Z,1.88
2023-02-25T21:50:59.244Z,1.95
2023-02-25T21:53:46.029Z,1.90
2023-02-25T21:56:33.645Z,2.47
2023-02-25T21:59:23.341Z,1.88
2023-02-25T22:02:10.529Z,2.05
2023-02-25T22:04:56.878Z,2.13
2023-02-25T22:07:52.680Z,2.00
2023-02-25T22:10:40.266Z,2.20
2023-02-25T22:13:33.193Z,1.77
2023-02-25T22:16:21.330Z,1.80
2023-02-25T22:19:10.831Z,2.60
2023-02-25T22:21:56.565Z,2.20
2023-02-25T22:24:42.314Z,2.85
2023-02-25T22:27:28.355Z,2.63
2023-02-25T22:30:13.822Z,1.73
2023-02-25T22:32:59.561Z,2.00
2023-02-25T22:35:54.654Z,2.65
2023-02-25T22:38:41.950Z,3.00
2023-02-25T22:41:32.402Z,3.20
2023-02-25T22:44:18.251Z,2.30
2023-02-25T22:47:04.231Z,2.28
2023-02-25T22:49:50.064Z,2.35
2023-02-25T22:52:37.673Z,2.67
2023-02-25T22:55:24.546Z,2.45
2023-02-25T22:58:10.153Z,2.05
2023-02-25T23:00:56.264Z,2.10
2023-02-25T23:03:45.815Z,3.00
2023-02-25T23:06:42.780Z,2.60
2023-02-25T23:09:29.031Z,3.20
2023-02-25T23:12:16.866Z,3.20
2023-02-25T23:15:02.358Z,3.15
2023-02-25T23:17:47.772Z,3.35
2023-02-25T23:20:41.881Z,3.20
2023-02-25T23:23:38.260Z,2.90
2023-02-25T23:26:33.689Z,2.58
2023-02-25T23:29:19.533Z,3.13
2023-02-25T23:32:05.036Z,2.20
2023-02-25T23:34:51.282Z,2.00
2023-02-25T23:37:38.506Z,2.15
2023-02-25T23:40:24.135Z,2.13
2023-02-25T23:43:13.840Z,2.60
2023-02-25T23:46:06.685Z,2.45
2023-02-25T23:48:56.996Z,2.97
2023-02-25T23:51:47.297Z,3.63
2023-02-25T23:54:32.976Z,2.40
2023-02-25T23:57:18.390Z,2.67
